sensor_id;sensor_type;location;lat;lon;timestamp;temperature;humidity
18339;DHT22;9295;44.484;11.240;2023-02-15T00:00:14;5.10;99.90
18339;DHT22;9295;44.484;11.240;2023-02-15T00:02:43;5.10;99.90
18339;DHT22;9295;44.484;11.240;2023-02-15T00:05:13;5.10;99.90
18339;DHT22;9295;44.484;11.240;2023-02-15T00:07:41;5.10;99.90
18339;DHT22;9295;44.484;11.240;2023-02-15T00:10:10;5.10;99.90
18339;DHT22;9295;44.484;11.240;2023-02-15T00:12:39;5.10;99.90
18339;DHT22;9295;44.484;11.240;2023-02-15T00:15:08;5.10;99.90
18339;DHT22;9295;44.484;11.240;2023-02-15T00:17:36;5.10;99.90
18339;DHT22;9295;44.484;11.240;2023-02-15T00:20:06;5.10;99.90
18339;DHT22;9295;44.484;11.240;2023-02-15T00:22:36;5.10;99.90
18339;DHT22;9295;44.484;11.240;2023-02-15T00:25:05;5.10;99.90
18339;DHT22;9295;44.484;11.240;2023-02-15T00:27:34;5.10;99.90
18339;DHT22;9295;44.484;11.240;2023-02-15T00:30:03;5.00;99.90
18339;DHT22;9295;44.484;11.240;2023-02-15T00:32:33;5.10;99.90
18339;DHT22;9295;44.484;11.240;2023-02-15T00:35:01;5.10;99.90
18339;DHT22;9295;44.484;11.240;2023-02-15T00:37:30;5.00;99.90
18339;DHT22;9295;44.484;11.240;2023-02-15T00:40:00;4.90;99.90
18339;DHT22;9295;44.484;11.240;2023-02-15T00:42:29;5.00;99.90
18339;DHT22;9295;44.484;11.240;2023-02-15T00:44:58;5.00;99.90
18339;DHT22;9295;44.484;11.240;2023-02-15T00:47:28;5.00;99.90
18339;DHT22;9295;44.484;11.240;2023-02-15T00:49:56;4.90;99.90
18339;DHT22;9295;44.484;11.240;2023-02-15T00:52:25;4.90;99.90
18339;DHT22;9295;44.484;11.240;2023-02-15T00:54:55;4.80;99.90
18339;DHT22;9295;44.484;11.240;2023-02-15T00:57:25;4.80;99.90
18339;DHT22;9295;44.484;11.240;2023-02-15T00:59:54;4.80;99.90
18339;DHT22;9295;44.484;11.240;2023-02-15T01:02:23;4.80;99.90
18339;DHT22;9295;44.484;11.240;2023-02-15T01:04:51;4.80;99.90
18339;DHT22;9295;44.484;11.240;2023-02-15T01:07:20;4.80;99.90
18339;DHT22;9295;44.484;11.240;2023-02-15T01:09:48;4.80;99.90
18339;DHT22;9295;44.484;11.240;2023-02-15T01:12:17;4.90;99.90
18339;DHT22;9295;44.484;11.240;2023-02-15T01:14:48;4.80;99.90
18339;DHT22;9295;44.484;11.240;2023-02-15T01:17:16;4.90;99.90
18339;DHT22;9295;44.484;11.240;2023-02-15T01:19:45;4.80;99.90
18339;DHT22;9295;44.484;11.240;2023-02-15T01:22:13;4.80;99.90
18339;DHT22;9295;44.484;11.240;2023-02-15T01:24:42;4.80;99.90
18339;DHT22;9295;44.484;11.240;2023-02-15T01:27:11;4.80;99.90
18339;DHT22;9295;44.484;11.240;2023-02-15T01:29:39;4.80;99.90
18339;DHT22;9295;44.484;11.240;2023-02-15T01:32:09;4.80;99.90
18339;DHT22;9295;44.484;11.240;2023-02-15T01:34:38;4.80;99.90
18339;DHT22;9295;44.484;11.240;2023-02-15T01:37:06;4.70;99.90
18339;DHT22;9295;44.484;11.240;2023-02-15T01:39:35;4.70;99.90
18339;DHT22;9295;44.484;11.240;2023-02-15T01:42:04;4.60;99.90
18339;DHT22;9295;44.484;11.240;2023-02-15T01:44:50;4.60;99.90
18339;DHT22;9295;44.484;11.240;2023-02-15T01:47:24;4.70;99.90
18339;DHT22;9295;44.484;11.240;2023-02-15T01:50:03;4.60;99.90
18339;DHT22;9295;44.484;11.240;2023-02-15T01:52:37;4.60;99.90
18339;DHT22;9295;44.484;11.240;2023-02-15T01:55:08;4.50;99.90
18339;DHT22;9295;44.484;11.240;2023-02-15T01:57:37;4.40;99.90
18339;DHT22;9295;44.484;11.240;2023-02-15T02:00:06;4.40;99.90
18339;DHT22;9295;44.484;11.240;2023-02-15T02:02:43;4.50;99.90
18339;DHT22;9295;44.484;11.240;2023-02-15T02:05:14;4.50;99.90
18339;DHT22;9295;44.484;11.240;2023-02-15T02:07:45;4.50;99.90
18339;DHT22;9295;44.484;11.240;2023-02-15T02:10:17;4.50;99.90
18339;DHT22;9295;44.484;11.240;2023-02-15T02:12:47;4.40;99.90
18339;DHT22;9295;44.484;11.240;2023-02-15T02:15:18;4.40;99.90
18339;DHT22;9295;44.484;11.240;2023-02-15T02:18:02;4.40;99.90
18339;DHT22;9295;44.484;11.240;2023-02-15T02:21:18;4.40;99.90
18339;DHT22;9295;44.484;11.240;2023-02-15T02:24:23;4.40;99.90
18339;DHT22;9295;44.484;11.240;2023-02-15T02:27:30;4.40;99.90
18339;DHT22;9295;44.484;11.240;2023-02-15T02:30:36;4.40;99.90
18339;DHT22;9295;44.484;11.240;2023-02-15T02:33:41;4.40;99.90
18339;DHT22;9295;44.484;11.240;2023-02-15T02:36:15;4.40;99.90
18339;DHT22;9295;44.484;11.240;2023-02-15T02:39:02;4.30;99.90
18339;DHT22;9295;44.484;11.240;2023-02-15T02:41:38;4.30;99.90
18339;DHT22;9295;44.484;11.240;2023-02-15T02:44:13;4.30;99.90
18339;DHT22;9295;44.484;11.240;2023-02-15T02:46:47;4.30;99.90
18339;DHT22;9295;44.484;11.240;2023-02-15T02:49:29;4.30;99.90
18339;DHT22;9295;44.484;11.240;2023-02-15T02:51:59;4.30;99.90
18339;DHT22;9295;44.484;11.240;2023-02-15T02:54:29;4.20;99.90
18339;DHT22;9295;44.484;11.240;2023-02-15T02:57:01;4.20;99.90
18339;DHT22;9295;44.484;11.240;2023-02-15T02:59:33;4.20;99.90
18339;DHT22;9295;44.484;11.240;2023-02-15T03:02:06;4.20;99.90
18339;DHT22;9295;44.484;11.240;2023-02-15T03:04:43;4.20;99.90
18339;DHT22;9295;44.484;11.240;2023-02-15T03:07:17;4.20;99.90
18339;DHT22;9295;44.484;11.240;2023-02-15T03:09:56;4.20;99.90
18339;DHT22;9295;44.484;11.240;2023-02-15T03:12:28;4.10;99.90
18339;DHT22;9295;44.484;11.240;2023-02-15T03:15:03;4.00;99.90
18339;DHT22;9295;44.484;11.240;2023-02-15T03:17:34;4.00;99.90
18339;DHT22;9295;44.484;11.240;2023-02-15T03:20:08;3.90;99.90
18339;DHT22;9295;44.484;11.240;2023-02-15T03:22:40;3.90;99.90
18339;DHT22;9295;44.484;11.240;2023-02-15T03:25:16;4.00;99.90
18339;DHT22;9295;44.484;11.240;2023-02-15T03:27:49;4.00;99.90
18339;DHT22;9295;44.484;11.240;2023-02-15T03:30:21;4.00;99.90
18339;DHT22;9295;44.484;11.240;2023-02-15T03:32:51;4.00;99.90
18339;DHT22;9295;44.484;11.240;2023-02-15T03:35:24;4.10;99.90
18339;DHT22;9295;44.484;11.240;2023-02-15T03:37:57;4.00;99.90
18339;DHT22;9295;44.484;11.240;2023-02-15T03:40:29;4.00;99.90
18339;DHT22;9295;44.484;11.240;2023-02-15T03:43:19;4.00;99.90
18339;DHT22;9295;44.484;11.240;2023-02-15T03:45:52;4.00;99.90
18339;DHT22;9295;44.484;11.240;2023-02-15T03:48:27;4.00;99.90
18339;DHT22;9295;44.484;11.240;2023-02-15T03:51:02;4.00;99.90
18339;DHT22;9295;44.484;11.240;2023-02-15T03:53:50;3.90;99.90
18339;DHT22;9295;44.484;11.240;2023-02-15T03:56:19;3.80;99.90
18339;DHT22;9295;44.484;11.240;2023-02-15T03:58:48;3.80;99.90
18339;DHT22;9295;44.484;11.240;2023-02-15T04:01:48;3.80;99.90
18339;DHT22;9295;44.484;11.240;2023-02-15T04:04:33;3.70;99.90
18339;DHT22;9295;44.484;11.240;2023-02-15T04:07:04;3.70;99.90
18339;DHT22;9295;44.484;11.240;2023-02-15T04:09:33;3.80;99.90
18339;DHT22;9295;44.484;11.240;2023-02-15T04:12:19;3.80;99.90
18339;DHT22;9295;44.484;11.240;2023-02-15T04:14:48;3.70;99.90
18339;DHT22;9295;44.484;11.240;2023-02-15T04:17:36;3.70;99.90
18339;DHT22;9295;44.484;11.240;2023-02-15T04:20:06;3.70;99.90
18339;DHT22;9295;44.484;11.240;2023-02-15T04:22:54;3.70;99.90
18339;DHT22;9295;44.484;11.240;2023-02-15T04:25:39;3.70;99.90
18339;DHT22;9295;44.484;11.240;2023-02-15T04:28:08;3.60;99.90
18339;DHT22;9295;44.484;11.240;2023-02-15T04:30:36;3.60;99.90
18339;DHT22;9295;44.484;11.240;2023-02-15T04:33:05;3.60;99.90
18339;DHT22;9295;44.484;11.240;2023-02-15T04:35:33;3.60;99.90
18339;DHT22;9295;44.484;11.240;2023-02-15T04:38:03;3.70;99.90
18339;DHT22;9295;44.484;11.240;2023-02-15T04:40:31;3.70;99.90
18339;DHT22;9295;44.484;11.240;2023-02-15T04:43:00;3.80;99.90
18339;DHT22;9295;44.484;11.240;2023-02-15T04:45:28;3.80;99.90
18339;DHT22;9295;44.484;11.240;2023-02-15T04:47:57;3.70;99.90
18339;DHT22;9295;44.484;11.240;2023-02-15T04:50:25;3.70;99.90
18339;DHT22;9295;44.484;11.240;2023-02-15T04:52:54;3.60;99.90
18339;DHT22;9295;44.484;11.240;2023-02-15T04:55:24;3.60;99.90
18339;DHT22;9295;44.484;11.240;2023-02-15T04:57:54;3.60;99.90
18339;DHT22;9295;44.484;11.240;2023-02-15T05:00:22;3.60;99.90
18339;DHT22;9295;44.484;11.240;2023-02-15T05:02:51;3.50;99.90
18339;DHT22;9295;44.484;11.240;2023-02-15T05:05:19;3.50;99.90
18339;DHT22;9295;44.484;11.240;2023-02-15T05:07:48;3.50;99.90
18339;DHT22;9295;44.484;11.240;2023-02-15T05:10:16;3.50;99.90
18339;DHT22;9295;44.484;11.240;2023-02-15T05:12:46;3.50;99.90
18339;DHT22;9295;44.484;11.240;2023-02-15T05:15:15;3.50;99.90
18339;DHT22;9295;44.484;11.240;2023-02-15T05:17:44;3.50;99.90
18339;DHT22;9295;44.484;11.240;2023-02-15T05:20:12;3.60;99.90
18339;DHT22;9295;44.484;11.240;2023-02-15T05:22:41;3.60;99.90
18339;DHT22;9295;44.484;11.240;2023-02-15T05:25:09;3.50;99.90
18339;DHT22;9295;44.484;11.240;2023-02-15T05:27:57;3.60;99.90
18339;DHT22;9295;44.484;11.240;2023-02-15T05:30:42;3.50;99.90
18339;DHT22;9295;44.484;11.240;2023-02-15T05:33:11;3.60;99.90
18339;DHT22;9295;44.484;11.240;2023-02-15T05:35:40;3.60;99.90
18339;DHT22;9295;44.484;11.240;2023-02-15T05:38:08;3.50;99.90
18339;DHT22;9295;44.484;11.240;2023-02-15T05:40:37;3.50;99.90
18339;DHT22;9295;44.484;11.240;2023-02-15T05:43:07;3.50;99.90
18339;DHT22;9295;44.484;11.240;2023-02-15T05:45:35;3.40;99.90
18339;DHT22;9295;44.484;11.240;2023-02-15T05:48:04;3.40;99.90
18339;DHT22;9295;44.484;11.240;2023-02-15T05:50:32;3.40;99.90
18339;DHT22;9295;44.484;11.240;2023-02-15T05:53:01;3.50;99.90
18339;DHT22;9295;44.484;11.240;2023-02-15T05:55:29;3.40;99.90
18339;DHT22;9295;44.484;11.240;2023-02-15T05:57:57;3.40;99.90
18339;DHT22;9295;44.484;11.240;2023-02-15T06:00:27;3.40;99.90
18339;DHT22;9295;44.484;11.240;2023-02-15T06:02:56;3.40;99.90
18339;DHT22;9295;44.484;11.240;2023-02-15T06:05:24;3.40;99.90
18339;DHT22;9295;44.484;11.240;2023-02-15T06:07:53;3.40;99.90
18339;DHT22;9295;44.484;11.240;2023-02-15T06:10:22;3.40;99.90
18339;DHT22;9295;44.484;11.240;2023-02-15T06:12:50;3.40;99.90
18339;DHT22;9295;44.484;11.240;2023-02-15T06:15:19;3.40;99.90
18339;DHT22;9295;44.484;11.240;2023-02-15T06:17:49;3.30;99.90
18339;DHT22;9295;44.484;11.240;2023-02-15T06:20:17;3.40;99.90
18339;DHT22;9295;44.484;11.240;2023-02-15T06:22:46;3.40;99.90
18339;DHT22;9295;44.484;11.240;2023-02-15T06:25:15;3.40;99.90
18339;DHT22;9295;44.484;11.240;2023-02-15T06:27:43;3.50;99.90
18339;DHT22;9295;44.484;11.240;2023-02-15T06:30:13;3.50;99.90
18339;DHT22;9295;44.484;11.240;2023-02-15T06:32:41;3.50;99.90
18339;DHT22;9295;44.484;11.240;2023-02-15T06:35:11;3.50;99.90
18339;DHT22;9295;44.484;11.240;2023-02-15T06:37:40;3.60;99.90
18339;DHT22;9295;44.484;11.240;2023-02-15T06:40:09;3.60;99.90
18339;DHT22;9295;44.484;11.240;2023-02-15T06:42:38;3.60;99.90
18339;DHT22;9295;44.484;11.240;2023-02-15T06:45:07;3.70;99.90
18339;DHT22;9295;44.484;11.240;2023-02-15T06:47:36;3.80;99.90
18339;DHT22;9295;44.484;11.240;2023-02-15T06:50:06;3.70;99.90
18339;DHT22;9295;44.484;11.240;2023-02-15T06:52:37;3.80;99.90
18339;DHT22;9295;44.484;11.240;2023-02-15T06:55:06;3.80;99.90
18339;DHT22;9295;44.484;11.240;2023-02-15T06:57:35;3.90;99.90
18339;DHT22;9295;44.484;11.240;2023-02-15T07:00:04;4.00;99.90
18339;DHT22;9295;44.484;11.240;2023-02-15T07:02:33;4.10;99.90
18339;DHT22;9295;44.484;11.240;2023-02-15T07:05:01;4.10;99.90
18339;DHT22;9295;44.484;11.240;2023-02-15T07:07:32;4.10;99.90
18339;DHT22;9295;44.484;11.240;2023-02-15T07:10:02;4.20;99.90
18339;DHT22;9295;44.484;11.240;2023-02-15T07:12:31;4.30;99.90
18339;DHT22;9295;44.484;11.240;2023-02-15T07:15:14;5.40;99.90
18339;DHT22;9295;44.484;11.240;2023-02-15T07:17:43;7.50;99.90
18339;DHT22;9295;44.484;11.240;2023-02-15T07:20:14;9.10;99.90
18339;DHT22;9295;44.484;11.240;2023-02-15T07:22:43;10.30;99.90
18339;DHT22;9295;44.484;11.240;2023-02-15T07:25:13;11.50;99.90
18339;DHT22;9295;44.484;11.240;2023-02-15T07:27:43;12.40;99.90
18339;DHT22;9295;44.484;11.240;2023-02-15T07:30:14;13.40;99.90
18339;DHT22;9295;44.484;11.240;2023-02-15T07:32:43;14.40;99.90
18339;DHT22;9295;44.484;11.240;2023-02-15T07:35:25;15.20;99.90
18339;DHT22;9295;44.484;11.240;2023-02-15T07:37:54;16.00;99.90
18339;DHT22;9295;44.484;11.240;2023-02-15T07:40:24;16.40;99.90
18339;DHT22;9295;44.484;11.240;2023-02-15T07:42:53;16.60;99.90
18339;DHT22;9295;44.484;11.240;2023-02-15T07:45:23;17.10;99.90
18339;DHT22;9295;44.484;11.240;2023-02-15T07:47:52;17.70;99.90
18339;DHT22;9295;44.484;11.240;2023-02-15T07:50:20;17.90;99.90
18339;DHT22;9295;44.484;11.240;2023-02-15T07:52:49;18.20;99.90
18339;DHT22;9295;44.484;11.240;2023-02-15T07:55:18;18.70;97.70
18339;DHT22;9295;44.484;11.240;2023-02-15T07:57:49;19.10;96.30
18339;DHT22;9295;44.484;11.240;2023-02-15T08:00:19;19.60;93.70
18339;DHT22;9295;44.484;11.240;2023-02-15T08:02:53;19.70;92.40
18339;DHT22;9295;44.484;11.240;2023-02-15T08:05:37;20.10;91.60
18339;DHT22;9295;44.484;11.240;2023-02-15T08:08:05;20.40;91.10
18339;DHT22;9295;44.484;11.240;2023-02-15T08:10:35;20.10;86.90
18339;DHT22;9295;44.484;11.240;2023-02-15T08:13:22;20.40;86.30
18339;DHT22;9295;44.484;11.240;2023-02-15T08:15:51;20.70;85.40
18339;DHT22;9295;44.484;11.240;2023-02-15T08:18:19;20.90;83.90
18339;DHT22;9295;44.484;11.240;2023-02-15T08:20:49;21.30;80.20
18339;DHT22;9295;44.484;11.240;2023-02-15T08:23:18;18.70;81.70
18339;DHT22;9295;44.484;11.240;2023-02-15T08:25:46;16.90;89.10
18339;DHT22;9295;44.484;11.240;2023-02-15T08:28:15;15.50;92.30
18339;DHT22;9295;44.484;11.240;2023-02-15T08:30:45;14.80;94.00
18339;DHT22;9295;44.484;11.240;2023-02-15T08:33:13;15.10;92.80
18339;DHT22;9295;44.484;11.240;2023-02-15T08:35:42;14.80;91.30
18339;DHT22;9295;44.484;11.240;2023-02-15T08:38:10;14.60;90.70
18339;DHT22;9295;44.484;11.240;2023-02-15T08:40:39;14.30;91.30
18339;DHT22;9295;44.484;11.240;2023-02-15T08:43:09;13.50;96.60
18339;DHT22;9295;44.484;11.240;2023-02-15T08:45:38;12.60;96.10
18339;DHT22;9295;44.484;11.240;2023-02-15T08:48:08;12.90;94.90
18339;DHT22;9295;44.484;11.240;2023-02-15T08:50:36;13.10;94.90
18339;DHT22;9295;44.484;11.240;2023-02-15T08:53:05;13.20;94.20
18339;DHT22;9295;44.484;11.240;2023-02-15T08:55:33;13.20;98.30
18339;DHT22;9295;44.484;11.240;2023-02-15T08:58:02;12.30;99.90
18339;DHT22;9295;44.484;11.240;2023-02-15T09:00:30;12.50;98.80
18339;DHT22;9295;44.484;11.240;2023-02-15T09:02:59;12.90;98.40
18339;DHT22;9295;44.484;11.240;2023-02-15T09:05:29;13.20;98.00
18339;DHT22;9295;44.484;11.240;2023-02-15T09:07:57;13.40;97.20
18339;DHT22;9295;44.484;11.240;2023-02-15T09:10:41;13.60;97.00
18339;DHT22;9295;44.484;11.240;2023-02-15T09:13:09;13.00;99.90
18339;DHT22;9295;44.484;11.240;2023-02-15T09:15:38;13.00;98.90
18339;DHT22;9295;44.484;11.240;2023-02-15T09:18:06;13.40;99.20
18339;DHT22;9295;44.484;11.240;2023-02-15T09:20:36;13.60;98.40
18339;DHT22;9295;44.484;11.240;2023-02-15T09:23:05;13.80;98.50
18339;DHT22;9295;44.484;11.240;2023-02-15T09:25:44;14.00;98.00
18339;DHT22;9295;44.484;11.240;2023-02-15T09:28:13;14.00;98.30
18339;DHT22;9295;44.484;11.240;2023-02-15T09:30:42;14.00;97.70
18339;DHT22;9295;44.484;11.240;2023-02-15T09:33:10;14.10;97.40
18339;DHT22;9295;44.484;11.240;2023-02-15T09:35:40;14.30;97.60
18339;DHT22;9295;44.484;11.240;2023-02-15T09:38:09;14.30;97.30
18339;DHT22;9295;44.484;11.240;2023-02-15T09:40:47;14.30;96.90
18339;DHT22;9295;44.484;11.240;2023-02-15T09:43:27;14.30;97.00
18339;DHT22;9295;44.484;11.240;2023-02-15T09:46:25;14.30;96.80
18339;DHT22;9295;44.484;11.240;2023-02-15T09:49:02;14.20;97.60
18339;DHT22;9295;44.484;11.240;2023-02-15T09:51:58;14.20;97.50
18339;DHT22;9295;44.484;11.240;2023-02-15T09:54:56;14.20;98.10
18339;DHT22;9295;44.484;11.240;2023-02-15T09:57:35;14.10;98.30
18339;DHT22;9295;44.484;11.240;2023-02-15T10:00:13;13.90;98.20
18339;DHT22;9295;44.484;11.240;2023-02-15T10:03:09;13.50;99.60
18339;DHT22;9295;44.484;11.240;2023-02-15T10:05:52;12.90;99.90
18339;DHT22;9295;44.484;11.240;2023-02-15T10:08:36;13.00;99.90
18339;DHT22;9295;44.484;11.240;2023-02-15T10:11:12;13.40;99.90
18339;DHT22;9295;44.484;11.240;2023-02-15T10:14:12;13.70;99.20
18339;DHT22;9295;44.484;11.240;2023-02-15T10:17:10;13.90;98.90
18339;DHT22;9295;44.484;11.240;2023-02-15T10:19:48;13.80;99.20
18339;DHT22;9295;44.484;11.240;2023-02-15T10:22:27;13.30;99.90
18339;DHT22;9295;44.484;11.240;2023-02-15T10:25:12;13.60;99.90
18339;DHT22;9295;44.484;11.240;2023-02-15T10:27:45;13.90;99.80
18339;DHT22;9295;44.484;11.240;2023-02-15T10:30:15;14.10;99.50
18339;DHT22;9295;44.484;11.240;2023-02-15T10:32:57;13.90;99.60
18339;DHT22;9295;44.484;11.240;2023-02-15T10:35:35;13.60;99.90
18339;DHT22;9295;44.484;11.240;2023-02-15T10:38:21;13.70;99.90
18339;DHT22;9295;44.484;11.240;2023-02-15T10:41:01;13.80;99.90
18339;DHT22;9295;44.484;11.240;2023-02-15T10:43:49;13.90;99.90
18339;DHT22;9295;44.484;11.240;2023-02-15T10:46:32;13.50;99.90
18339;DHT22;9295;44.484;11.240;2023-02-15T10:49:22;13.70;99.90
18339;DHT22;9295;44.484;11.240;2023-02-15T10:52:03;14.00;99.90
18339;DHT22;9295;44.484;11.240;2023-02-15T10:54:37;14.10;99.90
18339;DHT22;9295;44.484;11.240;2023-02-15T10:57:15;14.10;99.60
18339;DHT22;9295;44.484;11.240;2023-02-15T10:59:59;14.20;99.30
18339;DHT22;9295;44.484;11.240;2023-02-15T11:02:41;14.20;98.50
18339;DHT22;9295;44.484;11.240;2023-02-15T11:05:29;14.30;98.50
18339;DHT22;9295;44.484;11.240;2023-02-15T11:08:06;14.30;98.50
18339;DHT22;9295;44.484;11.240;2023-02-15T11:10:38;14.20;98.30
18339;DHT22;9295;44.484;11.240;2023-02-15T11:13:13;14.10;98.60
18339;DHT22;9295;44.484;11.240;2023-02-15T11:15:46;14.10;98.80
18339;DHT22;9295;44.484;11.240;2023-02-15T11:18:19;14.10;98.10
18339;DHT22;9295;44.484;11.240;2023-02-15T11:20:54;14.00;97.90
18339;DHT22;9295;44.484;11.240;2023-02-15T11:23:25;13.90;98.40
18339;DHT22;9295;44.484;11.240;2023-02-15T11:25:58;14.00;99.00
18339;DHT22;9295;44.484;11.240;2023-02-15T11:28:31;14.20;98.90
18339;DHT22;9295;44.484;11.240;2023-02-15T11:31:12;14.30;98.60
18339;DHT22;9295;44.484;11.240;2023-02-15T11:33:44;14.30;98.60
18339;DHT22;9295;44.484;11.240;2023-02-15T11:36:16;14.40;98.50
18339;DHT22;9295;44.484;11.240;2023-02-15T11:38:50;14.50;98.40
18339;DHT22;9295;44.484;11.240;2023-02-15T11:41:24;14.60;98.30
18339;DHT22;9295;44.484;11.240;2023-02-15T11:43:59;14.50;98.10
18339;DHT22;9295;44.484;11.240;2023-02-15T11:46:30;14.20;98.80
18339;DHT22;9295;44.484;11.240;2023-02-15T11:48:58;14.30;99.20
18339;DHT22;9295;44.484;11.240;2023-02-15T11:51:28;14.50;98.90
18339;DHT22;9295;44.484;11.240;2023-02-15T11:53:57;14.60;98.80
18339;DHT22;9295;44.484;11.240;2023-02-15T11:56:26;14.80;98.50
18339;DHT22;9295;44.484;11.240;2023-02-15T11:58:58;14.80;98.20
18339;DHT22;9295;44.484;11.240;2023-02-15T12:01:31;14.70;98.40
18339;DHT22;9295;44.484;11.240;2023-02-15T12:04:04;14.50;98.80
18339;DHT22;9295;44.484;11.240;2023-02-15T12:06:35;14.60;98.90
18339;DHT22;9295;44.484;11.240;2023-02-15T12:09:16;14.80;98.90
18339;DHT22;9295;44.484;11.240;2023-02-15T12:11:49;14.80;98.50
18339;DHT22;9295;44.484;11.240;2023-02-15T12:14:19;14.80;98.40
18339;DHT22;9295;44.484;11.240;2023-02-15T12:16:49;15.00;98.30
18339;DHT22;9295;44.484;11.240;2023-02-15T12:19:29;15.10;98.00
18339;DHT22;9295;44.484;11.240;2023-02-15T12:21:59;15.10;97.80
18339;DHT22;9295;44.484;11.240;2023-02-15T12:24:31;15.10;97.90
18339;DHT22;9295;44.484;11.240;2023-02-15T12:27:03;15.20;98.40
18339;DHT22;9295;44.484;11.240;2023-02-15T12:29:39;15.30;97.70
18339;DHT22;9295;44.484;11.240;2023-02-15T12:32:15;15.20;98.50
18339;DHT22;9295;44.484;11.240;2023-02-15T12:34:45;15.30;97.70
18339;DHT22;9295;44.484;11.240;2023-02-15T12:37:21;15.40;97.50
18339;DHT22;9295;44.484;11.240;2023-02-15T12:39:56;15.40;97.70
18339;DHT22;9295;44.484;11.240;2023-02-15T12:42:26;15.40;97.80
18339;DHT22;9295;44.484;11.240;2023-02-15T12:44:59;15.50;97.60
18339;DHT22;9295;44.484;11.240;2023-02-15T12:47:30;15.60;97.00
18339;DHT22;9295;44.484;11.240;2023-02-15T12:50:12;15.60;97.00
18339;DHT22;9295;44.484;11.240;2023-02-15T12:52:46;15.30;96.90
18339;DHT22;9295;44.484;11.240;2023-02-15T12:55:21;14.80;97.40
18339;DHT22;9295;44.484;11.240;2023-02-15T12:58:05;15.00;97.70
18339;DHT22;9295;44.484;11.240;2023-02-15T13:00:35;15.30;97.50
18339;DHT22;9295;44.484;11.240;2023-02-15T13:03:04;15.50;97.30
18339;DHT22;9295;44.484;11.240;2023-02-15T13:05:36;15.50;97.00
18339;DHT22;9295;44.484;11.240;2023-02-15T13:08:11;15.40;97.00
18339;DHT22;9295;44.484;11.240;2023-02-15T13:10:42;14.80;97.70
18339;DHT22;9295;44.484;11.240;2023-02-15T13:13:16;14.60;97.90
18339;DHT22;9295;44.484;11.240;2023-02-15T13:15:51;15.00;98.00
18339;DHT22;9295;44.484;11.240;2023-02-15T13:18:27;15.30;97.50
18339;DHT22;9295;44.484;11.240;2023-02-15T13:20:57;15.60;97.00
18339;DHT22;9295;44.484;11.240;2023-02-15T13:23:29;15.60;96.70
18339;DHT22;9295;44.484;11.240;2023-02-15T13:25:59;15.60;96.10
18339;DHT22;9295;44.484;11.240;2023-02-15T13:28:37;15.50;96.10
18339;DHT22;9295;44.484;11.240;2023-02-15T13:31:13;15.30;96.50
18339;DHT22;9295;44.484;11.240;2023-02-15T13:33:45;15.50;96.70
18339;DHT22;9295;44.484;11.240;2023-02-15T13:36:21;15.80;95.70
18339;DHT22;9295;44.484;11.240;2023-02-15T13:39:08;15.90;95.60
18339;DHT22;9295;44.484;11.240;2023-02-15T13:41:49;15.80;94.90
18339;DHT22;9295;44.484;11.240;2023-02-15T13:44:28;15.60;95.50
18339;DHT22;9295;44.484;11.240;2023-02-15T13:47:15;15.50;95.80
18339;DHT22;9295;44.484;11.240;2023-02-15T13:49:58;15.70;95.80
18339;DHT22;9295;44.484;11.240;2023-02-15T13:52:29;15.90;95.80
18339;DHT22;9295;44.484;11.240;2023-02-15T13:55:27;16.00;95.70
18339;DHT22;9295;44.484;11.240;2023-02-15T13:58:29;15.60;95.60
18339;DHT22;9295;44.484;11.240;2023-02-15T14:01:10;15.50;96.00
18339;DHT22;9295;44.484;11.240;2023-02-15T14:04:12;15.60;96.10
18339;DHT22;9295;44.484;11.240;2023-02-15T14:07:16;15.90;95.80
18339;DHT22;9295;44.484;11.240;2023-02-15T14:09:56;16.10;95.40
18339;DHT22;9295;44.484;11.240;2023-02-15T14:12:39;16.20;95.10
18339;DHT22;9295;44.484;11.240;2023-02-15T14:15:22;16.00;94.80
18339;DHT22;9295;44.484;11.240;2023-02-15T14:18:00;15.90;95.10
18339;DHT22;9295;44.484;11.240;2023-02-15T14:20:41;15.60;95.30
18339;DHT22;9295;44.484;11.240;2023-02-15T14:23:20;15.80;95.50
18339;DHT22;9295;44.484;11.240;2023-02-15T14:26:00;16.10;95.40
18339;DHT22;9295;44.484;11.240;2023-02-15T14:28:35;16.20;95.40
18339;DHT22;9295;44.484;11.240;2023-02-15T14:31:08;16.20;94.60
18339;DHT22;9295;44.484;11.240;2023-02-15T14:33:39;16.00;94.50
18339;DHT22;9295;44.484;11.240;2023-02-15T14:36:14;16.00;95.10
18339;DHT22;9295;44.484;11.240;2023-02-15T14:38:54;16.00;95.10
18339;DHT22;9295;44.484;11.240;2023-02-15T14:41:31;16.00;95.10
18339;DHT22;9295;44.484;11.240;2023-02-15T14:44:11;16.10;95.10
18339;DHT22;9295;44.484;11.240;2023-02-15T14:46:48;16.20;94.90
18339;DHT22;9295;44.484;11.240;2023-02-15T14:49:22;16.20;94.90
18339;DHT22;9295;44.484;11.240;2023-02-15T14:52:00;16.00;95.00
18339;DHT22;9295;44.484;11.240;2023-02-15T14:55:00;15.80;95.20
18339;DHT22;9295;44.484;11.240;2023-02-15T14:57:33;15.70;95.40
18339;DHT22;9295;44.484;11.240;2023-02-15T15:03:12;16.20;95.10
18339;DHT22;9295;44.484;11.240;2023-02-15T15:05:50;16.20;94.90
18339;DHT22;9295;44.484;11.240;2023-02-15T15:08:31;16.10;94.60
18339;DHT22;9295;44.484;11.240;2023-02-15T15:14:35;15.80;94.90
18339;DHT22;9295;44.484;11.240;2023-02-15T15:17:05;15.90;95.10
18339;DHT22;9295;44.484;11.240;2023-02-15T15:20:05;16.00;95.10
18339;DHT22;9295;44.484;11.240;2023-02-15T15:22:41;16.00;95.00
18339;DHT22;9295;44.484;11.240;2023-02-15T15:25:42;15.90;95.00
18339;DHT22;9295;44.484;11.240;2023-02-15T15:31:31;15.60;95.30
18339;DHT22;9295;44.484;11.240;2023-02-15T15:34:21;15.80;95.10
18339;DHT22;9295;44.484;11.240;2023-02-15T15:37:21;15.90;94.90
18339;DHT22;9295;44.484;11.240;2023-02-15T15:40:33;15.90;94.90
18339;DHT22;9295;44.484;11.240;2023-02-15T15:49:31;15.30;95.90
18339;DHT22;9295;44.484;11.240;2023-02-15T15:52:01;15.50;95.30
18339;DHT22;9295;44.484;11.240;2023-02-15T15:54:30;15.50;95.30
18339;DHT22;9295;44.484;11.240;2023-02-15T15:57:03;15.10;95.70
18339;DHT22;9295;44.484;11.240;2023-02-15T15:59:34;14.80;96.00
18339;DHT22;9295;44.484;11.240;2023-02-15T16:02:06;14.70;96.20
18339;DHT22;9295;44.484;11.240;2023-02-15T16:04:36;14.70;96.20
18339;DHT22;9295;44.484;11.240;2023-02-15T16:07:22;14.70;96.50
18339;DHT22;9295;44.484;11.240;2023-02-15T16:09:56;14.60;96.60
18339;DHT22;9295;44.484;11.240;2023-02-15T16:12:29;14.50;96.60
18339;DHT22;9295;44.484;11.240;2023-02-15T16:15:01;14.50;97.10
18339;DHT22;9295;44.484;11.240;2023-02-15T16:17:31;14.20;97.20
18339;DHT22;9295;44.484;11.240;2023-02-15T16:20:05;13.90;97.40
18339;DHT22;9295;44.484;11.240;2023-02-15T16:22:35;13.70;97.70
18339;DHT22;9295;44.484;11.240;2023-02-15T16:25:31;13.60;98.90
18339;DHT22;9295;44.484;11.240;2023-02-15T16:28:10;13.60;98.70
18339;DHT22;9295;44.484;11.240;2023-02-15T16:30:40;13.50;99.40
18339;DHT22;9295;44.484;11.240;2023-02-15T16:33:11;13.20;99.90
18339;DHT22;9295;44.484;11.240;2023-02-15T16:35:52;12.90;99.90
18339;DHT22;9295;44.484;11.240;2023-02-15T16:38:34;12.80;99.90